Time;durP1;ratioP1;P1;durP2;ratioP2;P2;SDS_P1;SDS_P2;PMS_P1;PMS_P2;Temp;Humidity;BMP_temperature;BMP_pressure;BME280_temperature;BME280_humidity;BME280_pressure;Samples;Min_cycle;Max_cycle;Signal;HPM_P1;HPM_P2
2021/03/23 00:00:52;;;;;;;11.40;5.10;;;;;;;0.52;52.74;100549.91;5115716;28;20024;-69
2021/03/23 00:03:27;;;;;;;16.38;5.43;;;;;;;0.15;53.64;100530.31;5115893;28;20115;-69
2021/03/23 00:05:53;;;;;;;13.20;6.30;;;;;;;0.25;53.93;100552.91;5115771;28;20133;-70
2021/03/23 00:08:29;;;;;;;13.85;5.78;;;;;;;0.37;54.25;100542.25;5115814;28;20474;-71
2021/03/23 00:10:59;;;;;;;11.05;5.65;;;;;;;0.46;53.76;100551.75;5115532;28;20028;-70
2021/03/23 00:13:24;;;;;;;13.23;6.13;;;;;;;0.44;53.60;100535.16;5115719;28;20034;-70
2021/03/23 00:15:50;;;;;;;13.02;5.88;;;;;;;0.46;53.84;100554.38;5097091;28;20371;-69
2021/03/23 00:18:17;;;;;;;14.10;5.97;;;;;;;0.38;53.85;100554.47;5115503;28;20489;-71
2021/03/23 00:20:43;;;;;;;12.40;6.18;;;;;;;0.19;54.74;100532.00;5097314;28;20028;-69
2021/03/23 00:23:09;;;;;;;13.45;6.50;;;;;;;0.38;54.76;100553.59;5115436;28;20037;-69
2021/03/23 00:25:35;;;;;;;14.07;5.95;;;;;;;0.33;54.88;100556.31;5097310;28;20176;-69
2021/03/23 00:28:01;;;;;;;13.50;6.47;;;;;;;0.23;54.98;100537.19;5115272;28;20034;-69
2021/03/23 00:30:27;;;;;;;15.52;6.72;;;;;;;0.17;55.25;100528.53;5097050;28;20478;-69
2021/03/23 00:32:53;;;;;;;14.07;6.40;;;;;;;0.35;55.49;100558.91;5097171;28;20381;-69
2021/03/23 00:35:19;;;;;;;13.10;6.80;;;;;;;0.26;55.64;100559.91;5097448;28;20038;-71
2021/03/23 00:37:49;;;;;;;15.30;6.15;;;;;;;-0.01;56.11;100534.88;5115384;28;20066;-76
2021/03/23 00:40:21;;;;;;;13.32;6.22;;;;;;;-0.06;56.93;100534.97;5115308;28;20034;-71
2021/03/23 00:42:47;;;;;;;15.43;6.47;;;;;;;0.04;56.63;100559.31;5114872;28;20043;-72
2021/03/23 00:45:14;;;;;;;12.80;6.30;;;;;;;0.04;56.48;100558.44;5115535;28;20047;-71
2021/03/23 00:47:40;;;;;;;15.05;6.18;;;;;;;-0.10;57.09;100529.75;5115421;28;20040;-69
2021/03/23 00:50:06;;;;;;;12.98;6.75;;;;;;;-0.07;56.92;100541.09;5096616;28;20140;-70
2021/03/23 00:52:31;;;;;;;16.20;6.50;;;;;;;-0.14;57.39;100536.81;5114937;28;20359;-69
2021/03/23 00:54:57;;;;;;;15.68;7.00;;;;;;;-0.10;57.65;100546.34;5096464;28;20042;-68
2021/03/23 00:57:23;;;;;;;13.55;5.90;;;;;;;0.05;57.47;100553.19;5114712;28;20116;-70
2021/03/23 00:59:48;;;;;;;14.10;6.45;;;;;;;0.00;57.50;100544.53;5114464;28;20065;-70
2021/03/23 01:02:14;;;;;;;12.90;6.28;;;;;;;-0.14;57.93;100541.19;5114877;28;20131;-70
2021/03/23 01:04:39;;;;;;;15.63;6.45;;;;;;;-0.12;57.73;100563.88;5079453;28;20031;-70
2021/03/23 01:07:05;;;;;;;12.13;6.60;;;;;;;-0.14;58.24;100572.66;5114670;28;20500;-70
2021/03/23 01:09:31;;;;;;;16.80;7.30;;;;;;;-0.19;58.53;100572.72;5114295;28;20498;-70
2021/03/23 01:11:56;;;;;;;14.32;6.72;;;;;;;-0.28;57.98;100538.72;5114079;28;20057;-70
2021/03/23 01:14:22;;;;;;;13.70;5.90;;;;;;;-0.15;58.31;100558.66;5114663;28;20035;-70
2021/03/23 01:16:48;;;;;;;14.80;6.28;;;;;;;-0.04;57.92;100569.88;5113817;28;20043;-74
2021/03/23 01:19:14;;;;;;;12.32;6.10;;;;;;;-0.13;57.85;100567.38;5114722;28;20509;-70
2021/03/23 01:21:39;;;;;;;13.57;6.50;;;;;;;-0.21;58.42;100574.44;5114483;28;20041;-70
2021/03/23 01:24:06;;;;;;;13.73;6.55;;;;;;;-0.46;58.79;100547.66;5114002;28;20441;-70
2021/03/23 01:26:32;;;;;;;14.43;6.50;;;;;;;-0.24;58.13;100571.88;5114160;28;20031;-70
2021/03/23 01:28:57;;;;;;;13.00;6.63;;;;;;;-0.36;58.88;100572.03;5113880;28;20462;-70
2021/03/23 01:31:23;;;;;;;13.00;6.68;;;;;;;-0.36;58.88;100564.16;5095957;28;20491;-70
2021/03/23 01:33:48;;;;;;;16.40;6.72;;;;;;;-0.42;58.72;100569.44;5113951;28;20043;-76
2021/03/23 01:36:14;;;;;;;15.10;6.95;;;;;;;-0.61;58.98;100538.19;5095884;28;20067;-69
2021/03/23 01:38:39;;;;;;;13.70;6.47;;;;;;;-0.48;59.24;100564.25;5114078;28;20035;-71
2021/03/23 01:41:05;;;;;;;14.50;6.80;;;;;;;-0.69;59.63;100542.63;5113920;28;20038;-69
2021/03/23 01:43:33;;;;;;;17.35;7.28;;;;;;;-0.71;59.02;100541.78;5095956;28;20031;-69
2021/03/23 01:46:00;;;;;;;12.48;7.07;;;;;;;-0.68;59.69;100578.41;5113634;28;20474;-70
2021/03/23 01:48:33;;;;;;;14.93;7.13;;;;;;;-0.88;59.34;100526.22;5114222;28;20035;-69
2021/03/23 01:51:04;;;;;;;15.88;7.53;;;;;;;-0.76;60.00;100569.78;5113511;28;20496;-71
2021/03/23 01:54:07;;;;;;;13.75;7.18;;;;;;;-0.74;60.08;100577.63;5113789;28;20042;-69
2021/03/23 01:56:33;;;;;;;15.80;6.88;;;;;;;-0.87;59.88;100546.31;5061365;28;20042;-72
2021/03/23 01:59:01;;;;;;;13.43;6.32;;;;;;;-0.92;60.36;100584.75;5113549;28;20114;-73
2021/03/23 02:01:27;;;;;;;18.33;7.22;;;;;;;-0.92;60.42;100582.13;5113444;28;20024;-74
2021/03/23 02:03:54;;;;;;;17.33;7.30;;;;;;;-1.02;60.48;100561.28;5113406;28;20432;-72
2021/03/23 02:06:47;;;;;;;16.48;7.32;;;;;;;-1.02;60.92;100559.53;5113593;28;20069;-71
2021/03/23 02:09:20;;;;;;;15.18;7.60;;;;;;;-1.04;60.65;100552.56;5113519;28;20427;-71
2021/03/23 02:11:54;;;;;;;15.82;7.00;;;;;;;-1.02;60.98;100551.69;5095693;28;20062;-72
2021/03/23 02:14:23;;;;;;;15.80;7.38;;;;;;;-0.95;61.42;100578.69;5113775;28;20465;-72
2021/03/23 02:16:49;;;;;;;18.08;7.40;;;;;;;-0.94;61.42;100585.66;5094659;28;20477;-73
2021/03/23 02:19:18;;;;;;;13.82;6.65;;;;;;;-1.20;61.49;100534.34;5113160;28;20076;-72
2021/03/23 02:21:44;;;;;;;15.60;7.13;;;;;;;-1.13;61.91;100555.25;5113601;28;20068;-72
2021/03/23 02:24:13;;;;;;;16.77;7.32;;;;;;;-1.38;62.00;100521.41;5094879;28;20032;-73
2021/03/23 02:26:39;;;;;;;12.70;6.70;;;;;;;-1.24;62.27;100539.66;5113480;28;20057;-72
2021/03/23 02:29:23;;;;;;;18.45;7.82;;;;;;;-1.20;62.40;100567.53;5112877;28;20032;-72
2021/03/23 02:31:52;;;;;;;13.25;7.05;;;;;;;-1.48;62.92;100532.81;5095358;28;20035;-70
2021/03/23 02:34:21;;;;;;;15.05;6.85;;;;;;;-1.52;62.97;100537.22;5112977;28;20060;-70
2021/03/23 02:36:48;;;;;;;15.90;7.57;;;;;;;-1.23;63.74;100598.97;5113542;28;20409;-71
2021/03/23 02:39:21;;;;;;;14.68;6.88;;;;;;;-1.02;63.29;100597.94;5112905;28;20156;-70
2021/03/23 02:41:47;;;;;;;17.83;8.00;;;;;;;-1.06;62.97;100570.91;5113147;28;20393;-70
2021/03/23 02:44:12;;;;;;;16.60;7.28;;;;;;;-1.13;62.78;100573.59;5112716;28;20043;-70
2021/03/23 02:46:38;;;;;;;16.70;7.07;;;;;;;-0.92;63.21;100607.47;5113288;28;20478;-70
2021/03/23 02:49:05;;;;;;;15.85;7.57;;;;;;;-0.98;62.64;100569.09;5112866;28;20028;-70
2021/03/23 02:51:31;;;;;;;14.48;7.65;;;;;;;-0.86;62.92;100610.03;5113134;28;20042;-69
2021/03/23 02:53:57;;;;;;;15.30;7.03;;;;;;;-0.79;63.21;100606.47;5094499;28;20031;-69
2021/03/23 02:56:22;;;;;;;16.42;7.15;;;;;;;-0.85;62.77;100579.47;5094654;28;20381;-69
2021/03/23 02:58:48;;;;;;;17.13;8.00;;;;;;;-1.17;63.14;100530.84;5113337;28;20514;-69
2021/03/23 03:01:15;;;;;;;16.58;7.90;;;;;;;-0.78;63.30;100608.19;5094629;28;20027;-69
2021/03/23 03:03:41;;;;;;;16.80;8.00;;;;;;;-0.88;63.90;100580.34;5113127;28;20119;-69
2021/03/23 03:06:07;;;;;;;17.77;8.20;;;;;;;-0.75;64.23;100613.44;5112842;28;20027;-69
2021/03/23 03:08:33;;;;;;;14.98;7.20;;;;;;;-0.87;64.17;100584.69;5112822;28;20032;-68
2021/03/23 03:10:59;;;;;;;17.17;8.25;;;;;;;-0.79;64.29;100611.72;5094155;28;20031;-68
2021/03/23 03:13:25;;;;;;;18.00;7.88;;;;;;;-1.12;64.47;100570.97;5112767;28;20035;-68
2021/03/23 03:15:52;;;;;;;16.35;8.00;;;;;;;-0.94;65.00;100606.59;5113029;28;20536;-68
2021/03/23 03:18:19;;;;;;;17.70;7.82;;;;;;;-1.02;65.29;100590.09;5094128;28;20443;-68
2021/03/23 03:20:44;;;;;;;22.33;8.73;;;;;;;-0.74;65.29;100614.31;5078013;28;20036;-69
2021/03/23 03:23:10;;;;;;;14.88;8.18;;;;;;;-0.67;65.29;100614.25;5112476;28;20062;-69
2021/03/23 03:25:36;;;;;;;15.07;8.20;;;;;;;-0.50;64.68;100615.81;5095038;28;20397;-69
2021/03/23 03:28:02;;;;;;;17.45;9.07;;;;;;;-0.55;64.25;100588.81;5113786;28;20028;-69
2021/03/23 03:30:30;;;;;;;16.15;8.95;;;;;;;-0.32;64.11;100611.28;5116913;28;20032;-69
2021/03/23 03:32:57;;;;;;;17.92;9.48;;;;;;;-0.13;63.97;100624.19;5116606;28;20027;-67
2021/03/23 03:35:29;;;;;;;18.05;9.35;;;;;;;-0.31;64.05;100588.53;5116466;28;20032;-68
2021/03/23 03:37:56;;;;;;;19.60;8.85;;;;;;;-0.42;63.68;100562.44;5099281;28;20114;-67
2021/03/23 03:40:25;;;;;;;16.05;8.70;;;;;;;-0.22;63.94;100612.03;5116185;28;20046;-68
2021/03/23 03:42:51;;;;;;;17.33;8.98;;;;;;;-0.36;64.25;100606.09;5116477;28;20107;-68
2021/03/23 03:45:18;;;;;;;16.67;8.60;;;;;;;-0.23;64.21;100610.31;5115967;28;20939;-68
2021/03/23 03:47:44;;;;;;;15.57;8.75;;;;;;;-0.35;64.55;100608.69;5116342;28;20039;-68
2021/03/23 03:50:10;;;;;;;20.35;9.15;;;;;;;-0.27;64.60;100615.63;5115921;28;20035;-69
2021/03/23 03:52:36;;;;;;;18.23;9.25;;;;;;;-0.22;64.17;100609.44;5116106;28;20805;-68
2021/03/23 03:55:02;;;;;;;15.43;8.90;;;;;;;-0.21;64.07;100607.66;5116030;28;20458;-68
2021/03/23 03:57:28;;;;;;;16.95;9.00;;;;;;;-0.63;64.46;100555.69;5116008;28;20039;-69
2021/03/23 03:59:53;;;;;;;20.10;8.93;;;;;;;-0.30;64.58;100611.25;5081035;28;20038;-70
2021/03/23 04:02:19;;;;;;;18.08;9.13;;;;;;;-0.44;65.48;100613.16;5115725;28;20074;-70
2021/03/23 04:04:46;;;;;;;17.92;9.20;;;;;;;-0.55;65.85;100621.13;5116004;28;20028;-70
2021/03/23 04:07:12;;;;;;;17.10;8.95;;;;;;;-0.59;66.07;100625.50;5097555;28;20042;-70
2021/03/23 04:09:38;;;;;;;18.60;9.00;;;;;;;-0.62;66.08;100628.16;5115994;28;20036;-70
2021/03/23 04:12:05;;;;;;;16.10;9.00;;;;;;;-0.62;66.16;100630.78;5115599;28;20427;-70
2021/03/23 04:14:30;;;;;;;16.60;9.07;;;;;;;-0.71;66.50;100641.34;5115981;28;20028;-71
2021/03/23 04:16:56;;;;;;;19.40;9.30;;;;;;;-0.74;66.59;100641.38;5097435;28;20501;-70
2021/03/23 04:19:22;;;;;;;20.48;9.52;;;;;;;-1.01;67.04;100607.53;5097098;28;20042;-72
2021/03/23 04:21:47;;;;;;;19.00;9.68;;;;;;;-1.01;67.36;100615.38;5097290;28;20040;-70
2021/03/23 04:24:13;;;;;;;15.98;9.18;;;;;;;-1.20;67.42;100572.75;5115438;28;20039;-70
2021/03/23 04:26:38;;;;;;;17.33;9.55;;;;;;;-0.73;67.44;100632.63;5115488;28;20546;-73
2021/03/23 04:29:04;;;;;;;17.80;8.82;;;;;;;-0.80;67.37;100630.94;5114944;28;20063;-73
2021/03/23 04:31:36;;;;;;;21.33;10.52;;;;;;;-1.04;67.92;100624.13;5115466;28;20066;-72
2021/03/23 04:34:03;;;;;;;19.85;10.18;;;;;;;-1.10;68.31;100621.56;5115262;28;20034;-75
2021/03/23 04:36:29;;;;;;;19.65;9.68;;;;;;;-0.98;68.09;100644.16;5115583;28;20419;-73
2021/03/23 04:38:54;;;;;;;20.08;10.07;;;;;;;-1.12;68.52;100611.97;5115029;28;20039;-73
2021/03/23 04:41:20;;;;;;;20.42;10.45;;;;;;;-1.13;68.37;100615.47;5114704;28;20028;-73
2021/03/23 04:43:50;;;;;;;18.73;9.65;;;;;;;-1.03;68.20;100636.34;5096815;28;20047;-73
2021/03/23 04:46:22;;;;;;;21.67;10.43;;;;;;;-0.91;67.85;100638.88;5114754;28;20035;-72
2021/03/23 04:48:47;;;;;;;17.33;9.82;;;;;;;-0.83;67.51;100648.44;5115045;28;20034;-73
2021/03/23 04:51:14;;;;;;;21.13;9.80;;;;;;;-0.63;67.28;100646.53;5114966;28;20035;-72
2021/03/23 04:53:40;;;;;;;21.23;9.90;;;;;;;-0.43;66.97;100652.44;5114977;28;20473;-74
2021/03/23 04:56:08;;;;;;;21.23;10.20;;;;;;;-0.34;65.12;100609.56;5114631;28;20040;-74
2021/03/23 04:58:34;;;;;;;16.45;9.50;;;;;;;0.07;64.68;100652.81;5114960;28;20453;-73
2021/03/23 05:01:00;;;;;;;18.38;10.05;;;;;;;0.06;64.84;100645.84;5096698;28;20066;-72
2021/03/23 05:03:33;;;;;;;19.20;10.45;;;;;;;0.05;65.02;100644.13;5096203;28;20069;-72
2021/03/23 05:06:04;;;;;;;18.92;10.45;;;;;;;0.24;64.17;100643.03;5114933;28;20386;-72
2021/03/23 05:08:29;;;;;;;16.63;10.55;;;;;;;0.10;64.90;100644.94;5096719;28;20062;-72
2021/03/23 05:10:55;;;;;;;21.33;10.65;;;;;;;0.05;64.81;100638.88;5114756;28;20543;-73
2021/03/23 05:13:20;;;;;;;16.92;9.48;;;;;;;0.24;64.30;100656.13;5095998;28;20531;-73
2021/03/23 05:15:46;;;;;;;20.40;10.38;;;;;;;0.17;64.24;100641.34;5114446;28;20031;-70
2021/03/23 05:18:12;;;;;;;17.40;10.15;;;;;;;0.21;63.79;100643.06;5114581;28;20051;-70
2021/03/23 05:20:38;;;;;;;21.13;10.85;;;;;;;0.28;64.47;100670.94;5114525;28;20101;-70
2021/03/23 05:23:04;;;;;;;18.23;10.05;;;;;;;-0.23;64.69;100599.81;5114410;28;20137;-71
2021/03/23 05:25:30;;;;;;;18.30;10.43;;;;;;;0.21;64.72;100658.81;5095848;28;20160;-70
2021/03/23 05:27:55;;;;;;;21.40;10.10;;;;;;;0.14;64.80;100657.13;5114358;28;20467;-71
2021/03/23 05:30:21;;;;;;;18.55;10.88;;;;;;;0.23;64.45;100636.91;5113895;28;20031;-71
2021/03/23 05:32:47;;;;;;;17.63;11.27;;;;;;;0.33;63.98;100642.91;5114307;28;20382;-71
2021/03/23 05:35:15;;;;;;;21.15;10.57;;;;;;;0.38;64.33;100654.19;5114037;28;20035;-71
2021/03/23 05:37:40;;;;;;;21.88;10.77;;;;;;;0.32;64.27;100646.44;5114231;28;20059;-70
2021/03/23 05:40:07;;;;;;;19.90;11.10;;;;;;;0.42;64.48;100678.66;5095801;28;20063;-70
2021/03/23 05:42:38;;;;;;;19.42;10.95;;;;;;;0.49;63.94;100675.09;5095974;28;20039;-71
2021/03/23 05:45:04;;;;;;;22.35;11.18;;;;;;;0.55;63.96;100675.88;5113860;28;20489;-72
2021/03/23 05:47:35;;;;;;;22.95;11.15;;;;;;;0.29;63.68;100628.09;5113573;28;20035;-72
2021/03/23 05:50:31;;;;;;;22.50;11.25;;;;;;;0.65;63.83;100687.13;5095617;28;20028;-72
2021/03/23 05:53:38;;;;;;;21.90;11.70;;;;;;;0.73;63.88;100692.28;5113835;28;20085;-72
2021/03/23 05:56:05;;;;;;;25.13;11.40;;;;;;;0.53;63.78;100656.66;5064561;28;20043;-71
2021/03/23 05:58:35;;;;;;;20.70;11.10;;;;;;;0.75;63.19;100665.09;5113555;28;20035;-72
2021/03/23 06:01:05;;;;;;;18.63;10.98;;;;;;;0.98;62.97;100677.94;5114194;28;20098;-70
2021/03/23 06:03:58;;;;;;;18.88;11.68;;;;;;;1.01;62.78;100684.91;5113156;28;20077;-68
2021/03/23 06:06:48;;;;;;;19.90;10.40;;;;;;;1.21;62.00;100684.59;5113290;28;20075;-68
2021/03/23 06:09:16;;;;;;;22.42;11.18;;;;;;;1.26;61.47;100669.66;5095078;28;20096;-69
2021/03/23 06:11:44;;;;;;;21.23;11.55;;;;;;;1.24;62.19;100669.66;5113474;28;20024;-68
2021/03/23 06:14:28;;;;;;;18.90;11.02;;;;;;;1.33;61.76;100668.63;5113142;28;20042;-76
2021/03/23 06:17:11;;;;;;;26.45;11.65;;;;;;;1.41;61.70;100674.63;5113716;28;20042;-69
2021/03/23 06:19:45;;;;;;;20.83;10.70;;;;;;;1.42;61.10;100668.50;5113557;28;20020;-68
2021/03/23 06:22:28;;;;;;;21.27;10.95;;;;;;;1.44;61.58;100666.69;5113247;28;20062;-78
2021/03/23 06:25:02;;;;;;;19.52;11.50;;;;;;;1.51;61.03;100681.50;5115938;28;20031;-72
2021/03/23 06:27:57;;;;;;;21.48;11.57;;;;;;;1.59;60.61;100676.97;5115915;28;20038;-70
2021/03/23 06:30:33;;;;;;;21.13;10.75;;;;;;;1.54;60.68;100673.53;5101739;28;20055;-71
2021/03/23 06:32:59;;;;;;;21.90;11.25;;;;;;;1.65;60.79;100692.66;5113048;28;20057;-71
2021/03/23 06:35:32;;;;;;;19.25;11.20;;;;;;;1.66;61.27;100685.63;5095016;28;20027;-75
2021/03/23 06:37:58;;;;;;;25.02;11.63;;;;;;;1.76;60.79;100684.59;5113375;28;20072;-75
2021/03/23 06:40:30;;;;;;;19.25;11.10;;;;;;;1.80;60.51;100680.13;5112953;28;20039;-73
2021/03/23 06:43:13;;;;;;;17.92;10.75;;;;;;;2.00;59.62;100685.91;5113190;28;20161;-76
2021/03/23 06:45:39;;;;;;;18.25;10.68;;;;;;;2.06;59.56;100679.66;5113340;28;20032;-73
2021/03/23 06:48:30;;;;;;;20.52;10.80;;;;;;;2.20;59.24;100683.75;5113340;28;20057;-76
2021/03/23 06:51:09;;;;;;;19.38;10.35;;;;;;;2.35;58.57;100673.84;5113264;28;20055;-77
2021/03/23 06:53:35;;;;;;;21.90;10.95;;;;;;;2.30;58.10;100651.09;5113967;28;20027;-73
2021/03/23 06:56:18;;;;;;;16.85;9.55;;;;;;;2.11;58.12;100602.34;5113026;28;20040;-75
2021/03/23 06:58:44;;;;;;;19.42;10.63;;;;;;;2.55;57.81;100683.06;5113469;28;20028;-74
2021/03/23 07:01:39;;;;;;;16.75;10.00;;;;;;;2.56;57.85;100683.94;5112919;28;20055;-73
2021/03/23 07:04:17;;;;;;;21.55;10.20;;;;;;;2.80;57.11;100679.94;5072064;28;20162;-76
2021/03/23 07:06:42;;;;;;;21.23;10.45;;;;;;;2.99;57.03;100683.00;5116871;28;20027;-78
2021/03/23 07:09:11;;;;;;;15.90;9.82;;;;;;;3.10;56.57;100683.66;5116966;28;20053;-78
2021/03/23 07:12:04;;;;;;;18.90;9.95;;;;;;;3.36;55.18;100680.41;5116335;28;20028;-80
2021/03/23 07:14:29;;;;;;;20.52;10.20;;;;;;;3.41;55.18;100681.16;5112492;28;20444;-78
2021/03/23 07:17:01;;;;;;;17.10;9.68;;;;;;;3.49;54.84;100686.28;5116635;28;20103;-72
2021/03/23 07:19:27;;;;;;;19.88;10.05;;;;;;;3.55;54.63;100651.81;5117129;28;20122;-74
2021/03/23 07:22:04;;;;;;;14.65;8.90;;;;;;;3.63;54.58;100660.41;5116392;28;20528;-74
2021/03/23 07:24:32;;;;;;;20.83;9.88;;;;;;;3.90;54.31;100672.03;5116736;28;20035;-75
2021/03/23 07:27:01;;;;;;;17.48;10.13;;;;;;;3.85;54.03;100656.28;5098249;28;20027;-74
2021/03/23 07:29:30;;;;;;;20.85;10.10;;;;;;;4.06;54.20;100664.56;5116464;28;20028;-77
2021/03/23 07:32:18;;;;;;;21.95;10.27;;;;;;;4.37;52.94;100686.59;5116332;28;20027;-77
2021/03/23 07:35:12;;;;;;;20.50;10.57;;;;;;;4.65;52.01;100686.69;5111737;28;20027;-76
2021/03/23 07:37:52;;;;;;;15.07;9.30;;;;;;;4.81;50.63;100690.59;5116216;28;20059;-71
2021/03/23 07:40:33;;;;;;;21.10;9.13;;;;;;;4.93;49.70;100689.38;5116408;28;20053;-78
2021/03/23 07:43:16;;;;;;;19.60;9.70;;;;;;;5.01;50.09;100694.41;5115886;28;20061;-72
2021/03/23 07:46:02;;;;;;;;;;;;;;;5.14;48.75;100686.06;5116478;28;20061;-77
2021/03/23 07:48:50;;;;;;;19.90;9.27;;;;;;;5.29;49.03;100682.06;5115099;28;20353;-74
2021/03/23 07:51:24;;;;;;;17.20;9.40;;;;;;;5.45;48.63;100679.81;5115804;28;20050;-74
2021/03/23 07:53:50;;;;;;;26.77;10.52;;;;;;;5.44;48.81;100657.78;5116066;28;20035;-74
2021/03/23 07:56:56;;;;;;;17.48;9.73;;;;;;;5.68;49.00;100681.69;5115156;28;20039;-74
2021/03/23 07:59:53;;;;;;;20.48;9.65;;;;;;;5.61;48.59;100678.41;5115832;28;20035;-76
2021/03/23 08:03:00;;;;;;;21.40;10.00;;;;;;;5.86;48.18;100673.13;5071284;28;20409;-74
2021/03/23 08:05:39;;;;;;;18.98;9.18;;;;;;;6.06;47.95;100667.19;5097530;28;20031;-69
2021/03/23 08:08:14;;;;;;;20.13;9.80;;;;;;;5.88;47.37;100673.06;5097492;28;20036;-72
2021/03/23 08:11:18;;;;;;;16.98;9.18;;;;;;;5.98;47.02;100670.13;5115707;28;20031;-76
2021/03/23 08:14:12;;;;;;;17.77;9.25;;;;;;;5.96;46.83;100647.22;5115294;28;20040;-78
2021/03/23 08:16:47;;;;;;;14.07;8.30;;;;;;;6.21;45.88;100671.94;5115554;28;20474;-75
2021/03/23 08:19:21;;;;;;;17.85;7.88;;;;;;;6.31;45.69;100668.06;5115360;28;20035;-73
2021/03/23 08:22:05;;;;;;;14.55;7.47;;;;;;;6.32;45.66;100667.13;5115248;28;20092;-74
2021/03/23 08:24:55;;;;;;;12.77;7.28;;;;;;;6.40;45.63;100660.69;5115581;28;20089;-75
2021/03/23 08:27:52;;;;;;;12.93;7.97;;;;;;;6.66;44.94;100657.94;5115341;28;20058;-76
2021/03/23 08:30:26;;;;;;;14.63;7.63;;;;;;;6.46;45.72;100658.66;5115354;28;20028;-74
2021/03/23 08:33:15;;;;;;;12.27;7.93;;;;;;;6.45;45.84;100664.88;5114961;28;20055;-79
2021/03/23 08:36:02;;;;;;;17.00;7.93;;;;;;;6.78;45.25;100662.78;5115291;28;20035;-77
2021/03/23 08:38:56;;;;;;;14.88;6.82;;;;;;;6.88;44.73;100658.84;5097077;28;20055;-77
2021/03/23 08:41:37;;;;;;;12.15;6.13;;;;;;;6.46;43.55;100604.81;5117015;28;20039;-78
2021/03/23 08:44:05;;;;;;;13.25;6.07;;;;;;;6.71;43.59;100665.72;5097279;28;20039;-71
2021/03/23 08:46:35;;;;;;;13.00;6.63;;;;;;;6.95;43.31;100642.69;5096995;28;20047;-76
2021/03/23 08:49:00;;;;;;;14.27;6.55;;;;;;;6.94;43.35;100673.66;5114969;28;20031;-75
2021/03/23 08:51:27;;;;;;;13.38;6.22;;;;;;;6.75;44.06;100657.56;5114756;28;20062;-76
2021/03/23 08:53:57;;;;;;;13.68;6.55;;;;;;;6.72;43.85;100641.78;5115036;28;20036;-76
2021/03/23 08:56:41;;;;;;;12.80;6.53;;;;;;;6.54;44.70;100667.19;5114932;28;20027;-76
2021/03/23 08:59:35;;;;;;;12.38;7.03;;;;;;;6.93;44.06;100661.31;5114544;28;20114;-76
2021/03/23 09:02:07;;;;;;;10.68;6.32;;;;;;;6.49;43.77;100599.41;5096286;28;20371;-75
2021/03/23 09:04:35;;;;;;;12.13;7.03;;;;;;;6.63;44.82;100655.38;5114865;28;20055;-78
2021/03/23 09:07:22;;;;;;;13.00;6.45;;;;;;;6.82;44.29;100661.72;5114491;28;20102;-71
2021/03/23 09:09:50;;;;;;;12.43;6.20;;;;;;;6.81;44.07;100667.97;5113283;28;20116;-74
2021/03/23 09:12:42;;;;;;;13.65;5.85;;;;;;;6.81;44.00;100662.66;5106732;28;20099;-72
2021/03/23 09:15:17;;;;;;;12.95;5.40;;;;;;;6.91;43.60;100657.00;5114109;28;20256;-72
2021/03/23 09:18:06;;;;;;;11.40;5.95;;;;;;;7.05;44.25;100644.09;5114376;28;20487;-73
2021/03/23 09:20:32;;;;;;;13.52;6.32;;;;;;;6.83;43.89;100663.44;5114599;28;20039;-75
2021/03/23 09:23:25;;;;;;;15.43;6.40;;;;;;;7.00;44.40;100656.66;5114178;28;20058;-75
2021/03/23 09:25:56;;;;;;;12.30;6.13;;;;;;;6.96;44.62;100660.34;5113885;28;20057;-74
2021/03/23 09:28:34;;;;;;;12.40;6.72;;;;;;;7.10;44.14;100653.56;5114489;28;20412;-77
2021/03/23 09:31:31;;;;;;;16.75;7.88;;;;;;;6.78;44.54;100572.63;5114002;28;20031;-73
2021/03/23 09:33:59;;;;;;;14.30;6.35;;;;;;;7.21;45.20;100637.22;5114000;28;20413;-72
2021/03/23 09:36:51;;;;;;;8.32;4.97;;;;;;;7.12;44.55;100640.25;5096000;28;20035;-76
2021/03/23 09:39:16;;;;;;;12.50;7.15;;;;;;;7.13;44.37;100649.91;5090945;28;20043;-75
2021/03/23 09:41:47;;;;;;;10.52;5.15;;;;;;;6.94;44.79;100635.66;5113614;28;20141;-75
2021/03/23 09:44:15;;;;;;;8.38;4.75;;;;;;;7.00;44.77;100646.03;5114056;28;20126;-75
2021/03/23 09:46:44;;;;;;;12.48;6.55;;;;;;;7.07;44.27;100642.22;5113679;28;20115;-74
2021/03/23 09:49:12;;;;;;;10.05;6.07;;;;;;;6.84;45.21;100598.88;5113902;28;20039;-75
2021/03/23 09:51:48;;;;;;;10.27;5.20;;;;;;;6.94;45.14;100630.34;5113774;28;20034;-74
2021/03/23 09:54:33;;;;;;;16.55;7.07;;;;;;;7.31;44.84;100620.00;5095443;28;20367;-72
2021/03/23 09:57:01;;;;;;;9.73;5.85;;;;;;;7.45;43.66;100622.97;5113804;28;20039;-70
2021/03/23 09:59:30;;;;;;;13.25;6.43;;;;;;;7.63;43.13;100601.91;5112718;28;20061;-72
2021/03/23 10:02:03;;;;;;;10.15;5.43;;;;;;;7.77;42.15;100595.97;5113192;28;20106;-74
2021/03/23 10:04:36;;;;;;;16.25;6.28;;;;;;;7.99;42.92;100578.16;5113416;28;20024;-74
2021/03/23 10:07:03;;;;;;;9.13;5.07;;;;;;;7.54;42.83;100563.31;5113499;28;20039;-73
2021/03/23 10:09:32;;;;;;;13.35;5.57;;;;;;;7.70;42.78;100595.38;5095229;28;20390;-75
2021/03/23 10:11:59;;;;;;;11.05;5.60;;;;;;;7.77;42.96;100569.41;5112842;28;20032;-73
2021/03/23 10:14:40;;;;;;;10.30;5.57;;;;;;;7.80;42.60;100590.53;5113263;28;20043;-73
2021/03/23 10:17:13;;;;;;;7.28;3.53;;;;;;;7.53;42.28;100581.94;5113469;28;20044;-71
2021/03/23 10:19:47;;;;;;;10.82;5.30;;;;;;;7.62;42.38;100592.16;5113427;28;20031;-78
2021/03/23 10:22:17;;;;;;;11.75;5.57;;;;;;;7.67;42.39;100582.22;5111812;28;20084;-74
2021/03/23 10:24:47;;;;;;;9.73;4.00;;;;;;;7.57;42.53;100588.88;5113439;28;20119;-74
2021/03/23 10:27:20;;;;;;;9.98;4.85;;;;;;;7.54;41.94;100558.00;5113130;28;20470;-78
2021/03/23 10:30:27;;;;;;;9.40;4.65;;;;;;;7.76;41.67;100584.50;5113312;28;20036;-78
2021/03/23 10:32:55;;;;;;;6.78;3.08;;;;;;;7.81;41.91;100576.31;5112643;28;20036;-73
2021/03/23 10:35:39;;;;;;;6.90;3.03;;;;;;;7.64;42.32;100574.41;5113052;28;20028;-73
2021/03/23 10:38:22;;;;;;;8.30;4.88;;;;;;;7.94;41.71;100577.53;5094235;28;20061;-74
2021/03/23 10:40:59;;;;;;;7.88;4.53;;;;;;;7.46;42.01;100553.03;5112887;28;20024;-73
2021/03/23 10:43:32;;;;;;;7.97;3.97;;;;;;;7.63;41.48;100551.44;5112825;28;20027;-77
2021/03/23 10:45:59;;;;;;;10.70;4.53;;;;;;;7.73;41.89;100566.06;5113150;28;20032;-76
2021/03/23 10:48:32;;;;;;;10.02;4.40;;;;;;;7.89;41.37;100574.19;5113070;28;20038;-76
2021/03/23 10:51:15;;;;;;;5.75;2.60;;;;;;;7.72;41.49;100561.63;5112921;28;20088;-74
2021/03/23 10:54:15;;;;;;;8.05;4.32;;;;;;;8.22;41.30;100554.09;5112646;28;20028;-74
2021/03/23 10:56:44;;;;;;;9.07;4.45;;;;;;;8.22;40.40;100500.09;5112945;28;20023;-78
2021/03/23 10:59:19;;;;;;;6.72;3.78;;;;;;;8.36;40.65;100539.34;5111454;28;20043;-75
2021/03/23 11:02:16;;;;;;;10.82;4.70;;;;;;;8.31;40.48;100550.16;5112468;28;20104;-77
2021/03/23 11:05:05;;;;;;;7.50;4.13;;;;;;;8.49;40.58;100540.47;5112387;28;20482;-76
2021/03/23 11:07:33;;;;;;;6.47;2.78;;;;;;;8.27;40.96;100511.34;5112565;28;20134;-75
2021/03/23 11:10:00;;;;;;;9.20;4.45;;;;;;;8.31;40.79;100507.63;5111339;28;20031;-77
2021/03/23 11:12:29;;;;;;;6.00;3.35;;;;;;;8.21;40.69;100511.66;5111857;28;20081;-74
2021/03/23 11:14:56;;;;;;;7.82;4.10;;;;;;;8.54;39.59;100526.03;5097833;28;20043;-76
2021/03/23 11:17:24;;;;;;;8.95;4.35;;;;;;;8.86;39.03;100536.94;5112349;28;20063;-78
2021/03/23 11:19:58;;;;;;;8.55;4.10;;;;;;;8.93;39.49;100535.69;5094639;28;20036;-75
2021/03/23 11:22:29;;;;;;;8.35;4.18;;;;;;;9.05;39.81;100527.09;5112573;28;20389;-73
2021/03/23 11:24:55;;;;;;;8.13;4.32;;;;;;;8.91;39.14;100503.00;5112647;28;20032;-69
2021/03/23 11:27:26;;;;;;;9.82;4.18;;;;;;;9.01;39.07;100514.91;5112777;28;20062;-76
2021/03/23 11:29:52;;;;;;;8.73;3.92;;;;;;;8.93;38.96;100521.53;5111425;28;20500;-75
2021/03/23 11:32:17;;;;;;;7.93;3.70;;;;;;;8.77;39.24;100518.75;5112306;28;20031;-73
2021/03/23 11:34:43;;;;;;;9.10;3.92;;;;;;;8.81;39.34;100529.19;5112486;28;20035;-77
2021/03/23 11:37:08;;;;;;;7.00;3.90;;;;;;;8.96;39.52;100508.94;5112508;28;20115;-75
2021/03/23 11:39:34;;;;;;;6.20;3.83;;;;;;;8.97;38.87;100518.63;5112396;28;20038;-76
2021/03/23 11:42:29;;;;;;;7.40;3.10;;;;;;;8.89;39.33;100511.06;5112297;28;20499;-75
2021/03/23 11:45:07;;;;;;;6.75;3.33;;;;;;;8.85;39.10;100482.88;5112542;28;20123;-77